sensor_id;sensor_type;location;lat;lon;timestamp;temperature;humidity
26595;DHT22;14238;49.496;8.154;2023-07-20T00:01:57;19.00;99.90
26595;DHT22;14238;49.496;8.154;2023-07-20T00:04:22;18.90;99.90
26595;DHT22;14238;49.496;8.154;2023-07-20T00:06:48;18.90;99.90
26595;DHT22;14238;49.496;8.154;2023-07-20T00:09:13;18.80;99.90
26595;DHT22;14238;49.496;8.154;2023-07-20T00:11:39;18.70;99.90
26595;DHT22;14238;49.496;8.154;2023-07-20T00:14:05;18.80;99.90
26595;DHT22;14238;49.496;8.154;2023-07-20T00:16:31;18.70;99.90
26595;DHT22;14238;49.496;8.154;2023-07-20T00:18:57;18.70;99.90
26595;DHT22;14238;49.496;8.154;2023-07-20T00:21:22;18.60;99.90
26595;DHT22;14238;49.496;8.154;2023-07-20T00:23:48;18.60;99.90
26595;DHT22;14238;49.496;8.154;2023-07-20T00:26:13;18.60;99.90
26595;DHT22;14238;49.496;8.154;2023-07-20T00:28:39;18.50;99.90
26595;DHT22;14238;49.496;8.154;2023-07-20T00:31:04;18.40;99.90
26595;DHT22;14238;49.496;8.154;2023-07-20T00:33:30;18.30;99.90
26595;DHT22;14238;49.496;8.154;2023-07-20T00:35:56;18.20;99.90
26595;DHT22;14238;49.496;8.154;2023-07-20T00:38:21;18.00;99.90
26595;DHT22;14238;49.496;8.154;2023-07-20T00:40:47;18.00;99.90
26595;DHT22;14238;49.496;8.154;2023-07-20T00:43:14;17.80;99.90
26595;DHT22;14238;49.496;8.154;2023-07-20T00:45:40;17.80;99.90
26595;DHT22;14238;49.496;8.154;2023-07-20T00:48:06;17.60;99.90
26595;DHT22;14238;49.496;8.154;2023-07-20T00:50:33;17.50;99.90
26595;DHT22;14238;49.496;8.154;2023-07-20T00:52:59;17.30;99.90
26595;DHT22;14238;49.496;8.154;2023-07-20T00:55:26;17.30;99.90
26595;DHT22;14238;49.496;8.154;2023-07-20T00:57:52;17.30;99.90
26595;DHT22;14238;49.496;8.154;2023-07-20T01:00:18;17.20;99.90
26595;DHT22;14238;49.496;8.154;2023-07-20T01:02:44;17.20;99.90
26595;DHT22;14238;49.496;8.154;2023-07-20T01:05:10;17.20;99.90
26595;DHT22;14238;49.496;8.154;2023-07-20T01:08:02;16.90;99.90
26595;DHT22;14238;49.496;8.154;2023-07-20T01:10:31;16.90;99.90
26595;DHT22;14238;49.496;8.154;2023-07-20T01:12:58;17.00;99.90
26595;DHT22;14238;49.496;8.154;2023-07-20T01:15:26;16.90;99.90
26595;DHT22;14238;49.496;8.154;2023-07-20T01:17:51;16.90;99.90
26595;DHT22;14238;49.496;8.154;2023-07-20T01:20:19;16.70;99.90
26595;DHT22;14238;49.496;8.154;2023-07-20T01:33:43;16.30;99.90
26595;DHT22;14238;49.496;8.154;2023-07-20T01:36:10;16.30;99.90
26595;DHT22;14238;49.496;8.154;2023-07-20T01:38:36;16.30;99.90
26595;DHT22;14238;49.496;8.154;2023-07-20T01:41:03;16.30;99.90
26595;DHT22;14238;49.496;8.154;2023-07-20T01:43:28;16.30;99.90
26595;DHT22;14238;49.496;8.154;2023-07-20T01:45:54;16.30;99.90
26595;DHT22;14238;49.496;8.154;2023-07-20T01:48:20;16.40;99.90
26595;DHT22;14238;49.496;8.154;2023-07-20T01:50:46;16.50;99.90
26595;DHT22;14238;49.496;8.154;2023-07-20T01:53:11;16.50;99.90
26595;DHT22;14238;49.496;8.154;2023-07-20T01:55:37;16.40;99.90
26595;DHT22;14238;49.496;8.154;2023-07-20T01:58:02;16.40;99.90
26595;DHT22;14238;49.496;8.154;2023-07-20T02:00:29;16.20;99.90
26595;DHT22;14238;49.496;8.154;2023-07-20T02:02:54;16.20;99.90
26595;DHT22;14238;49.496;8.154;2023-07-20T02:05:20;16.00;99.90
26595;DHT22;14238;49.496;8.154;2023-07-20T02:07:45;15.90;99.90
26595;DHT22;14238;49.496;8.154;2023-07-20T02:10:11;16.10;99.90
26595;DHT22;14238;49.496;8.154;2023-07-20T02:12:36;16.00;99.90
26595;DHT22;14238;49.496;8.154;2023-07-20T02:15:02;15.90;99.90
26595;DHT22;14238;49.496;8.154;2023-07-20T02:17:28;15.90;99.90
26595;DHT22;14238;49.496;8.154;2023-07-20T02:19:55;15.90;99.90
26595;DHT22;14238;49.496;8.154;2023-07-20T02:22:21;16.10;99.90
26595;DHT22;14238;49.496;8.154;2023-07-20T02:24:47;16.00;99.90
26595;DHT22;14238;49.496;8.154;2023-07-20T02:27:12;16.00;99.90
26595;DHT22;14238;49.496;8.154;2023-07-20T02:29:38;15.90;99.90
26595;DHT22;14238;49.496;8.154;2023-07-20T02:32:04;15.80;99.90
26595;DHT22;14238;49.496;8.154;2023-07-20T02:34:29;15.90;99.90
26595;DHT22;14238;49.496;8.154;2023-07-20T02:36:55;15.90;99.90
26595;DHT22;14238;49.496;8.154;2023-07-20T02:39:27;15.90;99.90
26595;DHT22;14238;49.496;8.154;2023-07-20T02:41:52;16.00;99.90
26595;DHT22;14238;49.496;8.154;2023-07-20T02:44:18;15.80;99.90
26595;DHT22;14238;49.496;8.154;2023-07-20T02:46:43;15.70;99.90
26595;DHT22;14238;49.496;8.154;2023-07-20T02:49:09;15.70;99.90
26595;DHT22;14238;49.496;8.154;2023-07-20T02:51:34;15.80;99.90
26595;DHT22;14238;49.496;8.154;2023-07-20T02:54:00;15.80;99.90
26595;DHT22;14238;49.496;8.154;2023-07-20T02:56:26;15.90;99.90
26595;DHT22;14238;49.496;8.154;2023-07-20T02:58:52;15.90;99.90
26595;DHT22;14238;49.496;8.154;2023-07-20T03:01:18;15.80;99.90
26595;DHT22;14238;49.496;8.154;2023-07-20T03:03:43;15.80;99.90
26595;DHT22;14238;49.496;8.154;2023-07-20T03:06:13;15.80;99.90
26595;DHT22;14238;49.496;8.154;2023-07-20T03:08:40;15.70;99.90
26595;DHT22;14238;49.496;8.154;2023-07-20T03:11:07;15.70;99.90
26595;DHT22;14238;49.496;8.154;2023-07-20T03:13:32;15.70;99.90
26595;DHT22;14238;49.496;8.154;2023-07-20T03:15:58;15.70;99.90
26595;DHT22;14238;49.496;8.154;2023-07-20T03:18:23;15.70;99.90
26595;DHT22;14238;49.496;8.154;2023-07-20T03:20:49;15.70;99.90
26595;DHT22;14238;49.496;8.154;2023-07-20T03:23:14;15.80;99.90
26595;DHT22;14238;49.496;8.154;2023-07-20T03:25:41;15.80;99.90
26595;DHT22;14238;49.496;8.154;2023-07-20T03:28:06;15.90;99.90
26595;DHT22;14238;49.496;8.154;2023-07-20T03:30:32;15.80;99.90
26595;DHT22;14238;49.496;8.154;2023-07-20T03:32:57;16.00;99.90
26595;DHT22;14238;49.496;8.154;2023-07-20T03:35:23;15.90;99.90
26595;DHT22;14238;49.496;8.154;2023-07-20T03:37:48;16.00;99.90
26595;DHT22;14238;49.496;8.154;2023-07-20T03:40:14;16.10;99.90
26595;DHT22;14238;49.496;8.154;2023-07-20T03:42:41;16.10;99.90
26595;DHT22;14238;49.496;8.154;2023-07-20T03:45:07;16.10;99.90
26595;DHT22;14238;49.496;8.154;2023-07-20T03:47:32;16.10;99.90
26595;DHT22;14238;49.496;8.154;2023-07-20T03:49:58;16.20;99.90
26595;DHT22;14238;49.496;8.154;2023-07-20T03:52:24;16.30;99.90
26595;DHT22;14238;49.496;8.154;2023-07-20T03:54:49;16.30;99.90
26595;DHT22;14238;49.496;8.154;2023-07-20T03:57:16;16.20;99.90
26595;DHT22;14238;49.496;8.154;2023-07-20T03:59:45;16.30;99.90
26595;DHT22;14238;49.496;8.154;2023-07-20T04:02:10;16.40;99.90
26595;DHT22;14238;49.496;8.154;2023-07-20T04:04:36;16.40;99.90
26595;DHT22;14238;49.496;8.154;2023-07-20T04:07:02;16.30;99.90
26595;DHT22;14238;49.496;8.154;2023-07-20T04:09:27;16.20;99.90
26595;DHT22;14238;49.496;8.154;2023-07-20T04:11:53;16.20;99.90
26595;DHT22;14238;49.496;8.154;2023-07-20T04:14:18;16.20;99.90
26595;DHT22;14238;49.496;8.154;2023-07-20T04:16:46;16.20;99.90
26595;DHT22;14238;49.496;8.154;2023-07-20T04:19:12;16.20;99.90
26595;DHT22;14238;49.496;8.154;2023-07-20T04:21:41;16.20;99.90
26595;DHT22;14238;49.496;8.154;2023-07-20T04:24:07;16.10;99.90
26595;DHT22;14238;49.496;8.154;2023-07-20T04:26:33;16.10;99.90
26595;DHT22;14238;49.496;8.154;2023-07-20T04:28:58;16.10;99.90
26595;DHT22;14238;49.496;8.154;2023-07-20T04:31:24;16.10;99.90
26595;DHT22;14238;49.496;8.154;2023-07-20T04:33:50;16.00;99.90
26595;DHT22;14238;49.496;8.154;2023-07-20T04:36:16;15.90;99.90
26595;DHT22;14238;49.496;8.154;2023-07-20T04:38:45;16.00;99.90
26595;DHT22;14238;49.496;8.154;2023-07-20T04:41:10;16.00;99.90
26595;DHT22;14238;49.496;8.154;2023-07-20T04:43:41;16.00;99.90
26595;DHT22;14238;49.496;8.154;2023-07-20T04:46:08;16.30;99.90
26595;DHT22;14238;49.496;8.154;2023-07-20T04:48:34;16.20;99.90
26595;DHT22;14238;49.496;8.154;2023-07-20T04:51:00;16.30;99.90
26595;DHT22;14238;49.496;8.154;2023-07-20T04:53:25;16.40;99.90
26595;DHT22;14238;49.496;8.154;2023-07-20T04:55:51;16.40;99.90
26595;DHT22;14238;49.496;8.154;2023-07-20T04:58:18;16.60;99.90
26595;DHT22;14238;49.496;8.154;2023-07-20T05:00:44;16.70;99.90
26595;DHT22;14238;49.496;8.154;2023-07-20T05:03:09;16.80;99.90
26595;DHT22;14238;49.496;8.154;2023-07-20T05:05:35;16.90;99.90
26595;DHT22;14238;49.496;8.154;2023-07-20T05:08:00;16.90;99.90
26595;DHT22;14238;49.496;8.154;2023-07-20T05:10:26;17.00;99.90
26595;DHT22;14238;49.496;8.154;2023-07-20T05:12:51;16.90;99.90
26595;DHT22;14238;49.496;8.154;2023-07-20T05:15:17;17.00;99.90
26595;DHT22;14238;49.496;8.154;2023-07-20T05:17:43;17.10;99.90
26595;DHT22;14238;49.496;8.154;2023-07-20T05:20:08;17.00;99.90
26595;DHT22;14238;49.496;8.154;2023-07-20T05:22:36;17.10;99.90
26595;DHT22;14238;49.496;8.154;2023-07-20T05:25:08;17.20;99.90
26595;DHT22;14238;49.496;8.154;2023-07-20T05:27:37;17.20;99.90
26595;DHT22;14238;49.496;8.154;2023-07-20T05:30:04;17.30;99.90
26595;DHT22;14238;49.496;8.154;2023-07-20T05:32:30;17.30;99.90
26595;DHT22;14238;49.496;8.154;2023-07-20T05:34:56;17.30;99.90
26595;DHT22;14238;49.496;8.154;2023-07-20T05:37:21;17.50;99.90
26595;DHT22;14238;49.496;8.154;2023-07-20T05:39:47;17.50;99.90
26595;DHT22;14238;49.496;8.154;2023-07-20T05:42:13;17.60;99.90
26595;DHT22;14238;49.496;8.154;2023-07-20T05:44:39;17.60;99.90
26595;DHT22;14238;49.496;8.154;2023-07-20T05:47:05;17.60;99.90
26595;DHT22;14238;49.496;8.154;2023-07-20T05:49:30;17.70;99.90
26595;DHT22;14238;49.496;8.154;2023-07-20T05:51:56;17.70;99.90
26595;DHT22;14238;49.496;8.154;2023-07-20T05:54:23;17.80;99.90
26595;DHT22;14238;49.496;8.154;2023-07-20T05:56:49;17.90;99.90
26595;DHT22;14238;49.496;8.154;2023-07-20T05:59:14;17.90;99.90
26595;DHT22;14238;49.496;8.154;2023-07-20T06:01:40;17.90;99.90
26595;DHT22;14238;49.496;8.154;2023-07-20T06:04:05;17.90;99.90
26595;DHT22;14238;49.496;8.154;2023-07-20T06:06:31;18.00;99.90
26595;DHT22;14238;49.496;8.154;2023-07-20T06:08:57;18.00;99.90
26595;DHT22;14238;49.496;8.154;2023-07-20T06:11:22;18.00;99.90
26595;DHT22;14238;49.496;8.154;2023-07-20T06:13:47;18.10;99.90
26595;DHT22;14238;49.496;8.154;2023-07-20T06:16:13;18.10;99.90
26595;DHT22;14238;49.496;8.154;2023-07-20T06:18:39;18.10;99.90
26595;DHT22;14238;49.496;8.154;2023-07-20T06:21:04;18.20;99.90
26595;DHT22;14238;49.496;8.154;2023-07-20T06:23:30;18.30;99.90
26595;DHT22;14238;49.496;8.154;2023-07-20T06:25:55;18.40;99.90
26595;DHT22;14238;49.496;8.154;2023-07-20T06:28:21;18.40;99.90
26595;DHT22;14238;49.496;8.154;2023-07-20T06:30:46;18.50;99.90
26595;DHT22;14238;49.496;8.154;2023-07-20T06:33:12;18.40;99.90
26595;DHT22;14238;49.496;8.154;2023-07-20T06:35:37;18.50;99.90
26595;DHT22;14238;49.496;8.154;2023-07-20T06:38:06;18.50;99.90
26595;DHT22;14238;49.496;8.154;2023-07-20T06:40:33;18.60;99.90
26595;DHT22;14238;49.496;8.154;2023-07-20T06:42:59;18.60;99.90
26595;DHT22;14238;49.496;8.154;2023-07-20T06:45:24;18.70;99.90
26595;DHT22;14238;49.496;8.154;2023-07-20T06:47:50;18.80;99.90
26595;DHT22;14238;49.496;8.154;2023-07-20T06:50:16;18.80;99.90
26595;DHT22;14238;49.496;8.154;2023-07-20T06:52:41;18.80;99.90
26595;DHT22;14238;49.496;8.154;2023-07-20T06:55:07;18.80;99.90
26595;DHT22;14238;49.496;8.154;2023-07-20T06:57:33;18.90;99.90
26595;DHT22;14238;49.496;8.154;2023-07-20T06:59:58;18.90;99.90
26595;DHT22;14238;49.496;8.154;2023-07-20T07:02:24;19.10;99.90
26595;DHT22;14238;49.496;8.154;2023-07-20T07:04:49;19.10;99.90
26595;DHT22;14238;49.496;8.154;2023-07-20T07:07:15;19.00;99.90
26595;DHT22;14238;49.496;8.154;2023-07-20T07:09:41;18.80;99.90
26595;DHT22;14238;49.496;8.154;2023-07-20T07:12:07;18.60;99.90
26595;DHT22;14238;49.496;8.154;2023-07-20T07:14:33;18.80;99.90
26595;DHT22;14238;49.496;8.154;2023-07-20T07:17:00;18.80;99.90
26595;DHT22;14238;49.496;8.154;2023-07-20T07:19:25;18.90;99.90
26595;DHT22;14238;49.496;8.154;2023-07-20T07:21:51;19.00;99.90
26595;DHT22;14238;49.496;8.154;2023-07-20T07:24:17;19.00;99.90
26595;DHT22;14238;49.496;8.154;2023-07-20T07:26:42;18.80;99.90
26595;DHT22;14238;49.496;8.154;2023-07-20T07:29:08;18.80;99.90
26595;DHT22;14238;49.496;8.154;2023-07-20T07:31:35;19.00;99.90
26595;DHT22;14238;49.496;8.154;2023-07-20T07:34:02;19.20;99.90
26595;DHT22;14238;49.496;8.154;2023-07-20T07:36:28;19.40;99.90
26595;DHT22;14238;49.496;8.154;2023-07-20T07:38:54;19.40;99.90
26595;DHT22;14238;49.496;8.154;2023-07-20T07:41:19;19.50;99.90
26595;DHT22;14238;49.496;8.154;2023-07-20T07:43:45;19.50;99.90
26595;DHT22;14238;49.496;8.154;2023-07-20T07:46:11;19.60;99.90
26595;DHT22;14238;49.496;8.154;2023-07-20T07:48:37;19.80;99.90
26595;DHT22;14238;49.496;8.154;2023-07-20T07:51:02;19.90;99.90
26595;DHT22;14238;49.496;8.154;2023-07-20T07:53:28;20.10;99.90
26595;DHT22;14238;49.496;8.154;2023-07-20T07:55:53;20.20;99.90
26595;DHT22;14238;49.496;8.154;2023-07-20T07:58:19;20.10;99.90
26595;DHT22;14238;49.496;8.154;2023-07-20T08:00:44;20.10;99.90
26595;DHT22;14238;49.496;8.154;2023-07-20T08:03:10;20.20;99.90
26595;DHT22;14238;49.496;8.154;2023-07-20T08:05:36;20.30;99.90
26595;DHT22;14238;49.496;8.154;2023-07-20T08:08:04;20.30;99.90
26595;DHT22;14238;49.496;8.154;2023-07-20T08:10:30;20.40;99.90
26595;DHT22;14238;49.496;8.154;2023-07-20T08:12:56;20.50;99.90
26595;DHT22;14238;49.496;8.154;2023-07-20T08:15:22;20.70;99.90
26595;DHT22;14238;49.496;8.154;2023-07-20T08:17:47;20.90;99.90
26595;DHT22;14238;49.496;8.154;2023-07-20T08:20:14;21.10;99.90
26595;DHT22;14238;49.496;8.154;2023-07-20T08:22:44;21.10;99.90
26595;DHT22;14238;49.496;8.154;2023-07-20T08:25:10;21.40;99.90
26595;DHT22;14238;49.496;8.154;2023-07-20T08:27:36;21.50;99.90
26595;DHT22;14238;49.496;8.154;2023-07-20T08:30:02;21.30;99.90
26595;DHT22;14238;49.496;8.154;2023-07-20T08:32:28;21.60;99.90
26595;DHT22;14238;49.496;8.154;2023-07-20T08:34:53;21.60;99.90
26595;DHT22;14238;49.496;8.154;2023-07-20T08:37:19;22.00;99.90
26595;DHT22;14238;49.496;8.154;2023-07-20T08:39:45;22.10;99.90
26595;DHT22;14238;49.496;8.154;2023-07-20T08:42:10;22.30;99.90
26595;DHT22;14238;49.496;8.154;2023-07-20T08:44:39;22.40;99.90
26595;DHT22;14238;49.496;8.154;2023-07-20T08:47:06;22.60;99.90
26595;DHT22;14238;49.496;8.154;2023-07-20T08:49:33;22.80;99.90
26595;DHT22;14238;49.496;8.154;2023-07-20T08:51:59;22.90;99.90
26595;DHT22;14238;49.496;8.154;2023-07-20T08:54:28;22.90;99.60
26595;DHT22;14238;49.496;8.154;2023-07-20T08:56:57;23.30;99.90
26595;DHT22;14238;49.496;8.154;2023-07-20T08:59:23;23.60;98.70
26595;DHT22;14238;49.496;8.154;2023-07-20T09:01:50;23.60;97.60
26595;DHT22;14238;49.496;8.154;2023-07-20T09:04:17;23.70;98.80
26595;DHT22;14238;49.496;8.154;2023-07-20T09:06:43;24.10;97.80
26595;DHT22;14238;49.496;8.154;2023-07-20T09:09:08;24.10;97.80
26595;DHT22;14238;49.496;8.154;2023-07-20T09:11:34;24.00;98.50
26595;DHT22;14238;49.496;8.154;2023-07-20T09:14:06;24.30;96.50
26595;DHT22;14238;49.496;8.154;2023-07-20T09:16:32;24.10;97.40
26595;DHT22;14238;49.496;8.154;2023-07-20T09:18:59;23.60;98.00
26595;DHT22;14238;49.496;8.154;2023-07-20T09:21:29;23.20;98.60
26595;DHT22;14238;49.496;8.154;2023-07-20T09:23:56;23.10;99.00
26595;DHT22;14238;49.496;8.154;2023-07-20T09:26:22;22.60;98.60
26595;DHT22;14238;49.496;8.154;2023-07-20T09:28:49;22.40;98.90
26595;DHT22;14238;49.496;8.154;2023-07-20T09:31:18;23.30;98.60
26595;DHT22;14238;49.496;8.154;2023-07-20T09:33:44;23.60;97.90
26595;DHT22;14238;49.496;8.154;2023-07-20T09:36:09;23.10;97.90
26595;DHT22;14238;49.496;8.154;2023-07-20T09:38:37;22.90;98.10
26595;DHT22;14238;49.496;8.154;2023-07-20T09:41:04;22.80;98.30
26595;DHT22;14238;49.496;8.154;2023-07-20T09:43:30;22.40;98.70
26595;DHT22;14238;49.496;8.154;2023-07-20T09:45:58;22.80;99.20
26595;DHT22;14238;49.496;8.154;2023-07-20T09:48:24;23.20;98.50
26595;DHT22;14238;49.496;8.154;2023-07-20T09:50:50;23.80;97.00
26595;DHT22;14238;49.496;8.154;2023-07-20T09:53:18;24.50;96.20
26595;DHT22;14238;49.496;8.154;2023-07-20T09:55:44;24.50;96.60
26595;DHT22;14238;49.496;8.154;2023-07-20T09:58:10;24.50;96.10
26595;DHT22;14238;49.496;8.154;2023-07-20T10:00:37;24.80;95.00
26595;DHT22;14238;49.496;8.154;2023-07-20T10:03:05;24.00;95.20
26595;DHT22;14238;49.496;8.154;2023-07-20T10:05:33;23.70;95.60
26595;DHT22;14238;49.496;8.154;2023-07-20T10:08:02;23.30;96.70
26595;DHT22;14238;49.496;8.154;2023-07-20T10:10:34;23.50;97.10
26595;DHT22;14238;49.496;8.154;2023-07-20T10:13:01;23.80;96.30
26595;DHT22;14238;49.496;8.154;2023-07-20T10:15:37;24.00;96.50
26595;DHT22;14238;49.496;8.154;2023-07-20T10:18:18;23.90;95.70
26595;DHT22;14238;49.496;8.154;2023-07-20T10:20:50;24.10;96.10
26595;DHT22;14238;49.496;8.154;2023-07-20T10:23:16;24.40;95.00
26595;DHT22;14238;49.496;8.154;2023-07-20T10:25:42;24.70;95.30
26595;DHT22;14238;49.496;8.154;2023-07-20T10:28:10;24.70;95.40
26595;DHT22;14238;49.496;8.154;2023-07-20T10:30:36;25.00;95.60
26595;DHT22;14238;49.496;8.154;2023-07-20T10:33:03;25.10;93.50
26595;DHT22;14238;49.496;8.154;2023-07-20T10:35:30;25.10;94.00
26595;DHT22;14238;49.496;8.154;2023-07-20T10:38:02;24.70;93.90
26595;DHT22;14238;49.496;8.154;2023-07-20T10:40:38;24.20;93.90
26595;DHT22;14238;49.496;8.154;2023-07-20T10:43:08;24.10;93.70
26595;DHT22;14238;49.496;8.154;2023-07-20T10:45:49;24.10;94.40
26595;DHT22;14238;49.496;8.154;2023-07-20T10:48:24;24.50;93.40
26595;DHT22;14238;49.496;8.154;2023-07-20T10:51:14;25.20;94.20
26595;DHT22;14238;49.496;8.154;2023-07-20T10:53:45;25.20;94.20
26595;DHT22;14238;49.496;8.154;2023-07-20T10:56:14;24.60;94.20
26595;DHT22;14238;49.496;8.154;2023-07-20T10:58:41;25.10;93.80
26595;DHT22;14238;49.496;8.154;2023-07-20T11:01:08;25.80;92.90
26595;DHT22;14238;49.496;8.154;2023-07-20T11:03:39;25.80;93.40
26595;DHT22;14238;49.496;8.154;2023-07-20T11:09:04;26.20;91.30
26595;DHT22;14238;49.496;8.154;2023-07-20T11:11:33;26.20;91.10
26595;DHT22;14238;49.496;8.154;2023-07-20T11:14:03;26.20;91.80
26595;DHT22;14238;49.496;8.154;2023-07-20T11:16:37;26.20;91.30
26595;DHT22;14238;49.496;8.154;2023-07-20T11:19:04;26.00;92.10
26595;DHT22;14238;49.496;8.154;2023-07-20T11:21:40;26.30;91.70
26595;DHT22;14238;49.496;8.154;2023-07-20T11:24:06;27.00;91.40
26595;DHT22;14238;49.496;8.154;2023-07-20T11:26:52;27.30;91.20
26595;DHT22;14238;49.496;8.154;2023-07-20T11:29:19;27.50;90.40
26595;DHT22;14238;49.496;8.154;2023-07-20T11:31:46;27.10;90.10
26595;DHT22;14238;49.496;8.154;2023-07-20T11:34:14;27.20;90.20
26595;DHT22;14238;49.496;8.154;2023-07-20T11:36:44;26.90;90.00
26595;DHT22;14238;49.496;8.154;2023-07-20T11:39:11;27.60;89.60
26595;DHT22;14238;49.496;8.154;2023-07-20T11:41:37;27.70;86.20
26595;DHT22;14238;49.496;8.154;2023-07-20T11:44:04;27.60;87.20
26595;DHT22;14238;49.496;8.154;2023-07-20T11:46:30;26.80;85.80
26595;DHT22;14238;49.496;8.154;2023-07-20T11:48:59;25.80;90.10
26595;DHT22;14238;49.496;8.154;2023-07-20T11:51:29;25.80;89.40
26595;DHT22;14238;49.496;8.154;2023-07-20T11:53:55;26.90;87.00
26595;DHT22;14238;49.496;8.154;2023-07-20T11:56:23;26.50;89.40
26595;DHT22;14238;49.496;8.154;2023-07-20T11:58:48;26.50;88.90
26595;DHT22;14238;49.496;8.154;2023-07-20T12:01:14;26.40;88.80
26595;DHT22;14238;49.496;8.154;2023-07-20T12:03:42;26.60;90.10
26595;DHT22;14238;49.496;8.154;2023-07-20T12:06:12;26.80;89.90
26595;DHT22;14238;49.496;8.154;2023-07-20T12:08:42;27.30;88.60
26595;DHT22;14238;49.496;8.154;2023-07-20T12:11:08;27.60;89.00
26595;DHT22;14238;49.496;8.154;2023-07-20T12:13:43;27.70;87.20
26595;DHT22;14238;49.496;8.154;2023-07-20T12:16:13;26.80;87.40
26595;DHT22;14238;49.496;8.154;2023-07-20T12:18:40;27.20;89.80
26595;DHT22;14238;49.496;8.154;2023-07-20T12:21:06;27.90;89.70
26595;DHT22;14238;49.496;8.154;2023-07-20T12:23:40;27.40;84.70
26595;DHT22;14238;49.496;8.154;2023-07-20T12:26:10;26.80;86.00
26595;DHT22;14238;49.496;8.154;2023-07-20T12:28:39;26.20;88.60
26595;DHT22;14238;49.496;8.154;2023-07-20T12:31:09;26.10;89.80
26595;DHT22;14238;49.496;8.154;2023-07-20T12:33:39;26.00;89.60
26595;DHT22;14238;49.496;8.154;2023-07-20T12:36:05;25.90;87.60
26595;DHT22;14238;49.496;8.154;2023-07-20T12:38:30;25.40;90.00
26595;DHT22;14238;49.496;8.154;2023-07-20T12:40:57;25.20;90.00
26595;DHT22;14238;49.496;8.154;2023-07-20T12:43:22;24.90;90.90
26595;DHT22;14238;49.496;8.154;2023-07-20T12:45:48;25.20;90.50
26595;DHT22;14238;49.496;8.154;2023-07-20T12:48:13;25.10;91.40
26595;DHT22;14238;49.496;8.154;2023-07-20T12:50:39;24.70;91.10
26595;DHT22;14238;49.496;8.154;2023-07-20T12:53:05;25.00;92.70
26595;DHT22;14238;49.496;8.154;2023-07-20T12:55:31;25.80;91.40
26595;DHT22;14238;49.496;8.154;2023-07-20T12:57:56;25.80;90.90
26595;DHT22;14238;49.496;8.154;2023-07-20T13:00:22;25.40;90.90
26595;DHT22;14238;49.496;8.154;2023-07-20T13:02:48;25.00;92.00
26595;DHT22;14238;49.496;8.154;2023-07-20T13:05:14;24.90;91.80
26595;DHT22;14238;49.496;8.154;2023-07-20T13:07:40;24.90;93.20
26595;DHT22;14238;49.496;8.154;2023-07-20T13:10:07;24.60;91.80
26595;DHT22;14238;49.496;8.154;2023-07-20T13:12:33;24.70;92.40
26595;DHT22;14238;49.496;8.154;2023-07-20T13:15:01;25.30;92.80
26595;DHT22;14238;49.496;8.154;2023-07-20T13:17:27;26.60;92.80
26595;DHT22;14238;49.496;8.154;2023-07-20T13:19:54;27.30;90.30
26595;DHT22;14238;49.496;8.154;2023-07-20T13:22:20;26.70;89.60
26595;DHT22;14238;49.496;8.154;2023-07-20T13:24:46;26.10;88.30
26595;DHT22;14238;49.496;8.154;2023-07-20T13:27:17;25.60;90.50
26595;DHT22;14238;49.496;8.154;2023-07-20T13:29:43;25.30;90.10
26595;DHT22;14238;49.496;8.154;2023-07-20T13:32:09;24.90;91.00
26595;DHT22;14238;49.496;8.154;2023-07-20T13:34:35;24.80;91.20
26595;DHT22;14238;49.496;8.154;2023-07-20T13:37:01;24.70;91.10
26595;DHT22;14238;49.496;8.154;2023-07-20T13:39:27;24.60;91.80
26595;DHT22;14238;49.496;8.154;2023-07-20T13:41:53;24.80;90.30
26595;DHT22;14238;49.496;8.154;2023-07-20T13:44:21;24.90;92.50
26595;DHT22;14238;49.496;8.154;2023-07-20T13:46:48;25.50;90.80
26595;DHT22;14238;49.496;8.154;2023-07-20T13:49:14;25.90;92.20
26595;DHT22;14238;49.496;8.154;2023-07-20T13:51:41;25.90;90.10
26595;DHT22;14238;49.496;8.154;2023-07-20T13:54:07;26.60;90.10
26595;DHT22;14238;49.496;8.154;2023-07-20T13:56:32;27.10;87.60
26595;DHT22;14238;49.496;8.154;2023-07-20T13:58:58;27.30;87.20
26595;DHT22;14238;49.496;8.154;2023-07-20T14:01:23;27.30;89.20
26595;DHT22;14238;49.496;8.154;2023-07-20T14:03:50;26.80;88.20
26595;DHT22;14238;49.496;8.154;2023-07-20T14:06:16;26.60;90.60
26595;DHT22;14238;49.496;8.154;2023-07-20T14:08:42;26.00;89.30
26595;DHT22;14238;49.496;8.154;2023-07-20T14:11:12;25.80;90.90
26595;DHT22;14238;49.496;8.154;2023-07-20T14:13:38;25.80;90.90
26595;DHT22;14238;49.496;8.154;2023-07-20T14:16:03;25.70;91.40
26595;DHT22;14238;49.496;8.154;2023-07-20T14:18:29;25.60;92.00
26595;DHT22;14238;49.496;8.154;2023-07-20T14:20:55;25.70;91.20
26595;DHT22;14238;49.496;8.154;2023-07-20T14:23:20;26.50;91.50
26595;DHT22;14238;49.496;8.154;2023-07-20T14:25:46;26.60;88.40
26595;DHT22;14238;49.496;8.154;2023-07-20T14:28:11;27.20;91.30
26595;DHT22;14238;49.496;8.154;2023-07-20T14:30:38;26.50;91.60
26595;DHT22;14238;49.496;8.154;2023-07-20T14:33:03;26.00;91.20
26595;DHT22;14238;49.496;8.154;2023-07-20T14:35:29;25.40;92.40
26595;DHT22;14238;49.496;8.154;2023-07-20T14:37:54;25.00;92.60
26595;DHT22;14238;49.496;8.154;2023-07-20T14:40:20;24.90;93.10
26595;DHT22;14238;49.496;8.154;2023-07-20T14:42:46;24.90;93.10
26595;DHT22;14238;49.496;8.154;2023-07-20T14:45:12;24.70;92.80
26595;DHT22;14238;49.496;8.154;2023-07-20T14:47:37;24.80;93.10
26595;DHT22;14238;49.496;8.154;2023-07-20T14:50:03;25.00;92.80
26595;DHT22;14238;49.496;8.154;2023-07-20T14:52:29;25.00;92.50
26595;DHT22;14238;49.496;8.154;2023-07-20T14:54:55;24.70;92.70
26595;DHT22;14238;49.496;8.154;2023-07-20T14:57:20;24.50;93.10
26595;DHT22;14238;49.496;8.154;2023-07-20T14:59:49;24.50;93.00
26595;DHT22;14238;49.496;8.154;2023-07-20T15:02:14;24.60;92.10
26595;DHT22;14238;49.496;8.154;2023-07-20T15:04:47;24.80;92.90
26595;DHT22;14238;49.496;8.154;2023-07-20T15:07:12;24.70;92.00
26595;DHT22;14238;49.496;8.154;2023-07-20T15:09:38;24.90;91.80
26595;DHT22;14238;49.496;8.154;2023-07-20T15:12:04;25.10;93.50
26595;DHT22;14238;49.496;8.154;2023-07-20T15:14:29;25.90;92.20
26595;DHT22;14238;49.496;8.154;2023-07-20T15:16:55;26.50;91.30
26595;DHT22;14238;49.496;8.154;2023-07-20T15:19:20;26.20;91.30
26595;DHT22;14238;49.496;8.154;2023-07-20T15:21:47;25.90;91.80
26595;DHT22;14238;49.496;8.154;2023-07-20T15:24:12;26.00;92.00
26595;DHT22;14238;49.496;8.154;2023-07-20T15:26:38;25.70;92.20
26595;DHT22;14238;49.496;8.154;2023-07-20T15:29:04;25.30;91.70
26595;DHT22;14238;49.496;8.154;2023-07-20T15:31:30;25.10;92.20
26595;DHT22;14238;49.496;8.154;2023-07-20T15:33:55;25.10;91.40
26595;DHT22;14238;49.496;8.154;2023-07-20T15:36:21;25.20;92.60
26595;DHT22;14238;49.496;8.154;2023-07-20T15:38:47;25.00;92.70
26595;DHT22;14238;49.496;8.154;2023-07-20T15:41:12;24.80;92.90